Terminal Aerodrome Forecast
Issued by NWS Upton, NY

Home | Current Version | Previous Version | Text Only | Print | Product List | Glossary On
Versions: 1 2 3 4 5 6 7 8 9 10 11 12 13 14 15 16 17 18 19 20 21 22 23 24 25
000
FTUS41 KOKX 280800 AAB
TAFJFK
TAF AMD
KJFK 280844Z 2809/2912 21009KT P6SM VCSH FEW050 BKN120
     FM281400 22013KT P6SM VCSH BKN040
     FM281700 23017G24KT P6SM SCT050
     FM282300 29023G31KT P6SM FEW050
     FM290300 29020G28KT P6SM SCT250
     FM290800 29012KT P6SM FEW250=

USA.gov is the U.S. government's official web portal to all federal, state and local government web resources and services.